Terminal Aerodrome Forecast
Issued by NWS

Home | Current Version | Previous Version | Graphics & Text | Print | Product List | Glossary On
Versions: 1 2 3 4 5 6 7 8 9 10 11 12 13 14 15 16 17
695
FTUS43 KBIS 192323
TAFMOT
TAF
KMOT 192323Z 2000/2024 19009KT P6SM SKC
     FM200900 12005KT P6SM SCT250=

USA.gov is the U.S. government's official web portal to all federal, state and local government web resources and services.